Time;durP1;ratioP1;P1;durP2;ratioP2;P2;SDS_P1;SDS_P2;PMS_P1;PMS_P2;Temp;Humidity;BMP_temperature;BMP_pressure;BME280_temperature;BME280_humidity;BME280_pressure;Samples;Min_cycle;Max_cycle;Signal;HPM_P1;HPM_P2
2023/04/15 04:05:14;;;;;;;1.08;0.95;;;4.00;99.90;;;;;;5460582;23;20366;-64
2023/04/15 04:07:40;;;;;;;0.97;0.87;;;4.00;99.90;;;;;;4957194;29;20260;-63
2023/04/15 04:10:06;;;;;;;0.70;0.70;;;4.00;99.90;;;;;;4957134;29;20559;-63
2023/04/15 04:12:32;;;;;;;1.20;1.10;;;4.00;99.90;;;;;;4957071;29;20253;-64
2023/04/15 04:14:57;;;;;;;1.20;1.10;;;3.90;99.90;;;;;;4956844;28;20296;-63
2023/04/15 04:17:23;;;;;;;1.57;1.47;;;3.90;99.90;;;;;;4939713;29;20184;-63
2023/04/15 04:19:48;;;;;;;1.63;1.57;;;3.90;99.90;;;;;;4955938;28;20623;-63
2023/04/15 04:22:14;;;;;;;1.57;1.20;;;3.80;99.90;;;;;;4956798;29;20227;-64
2023/04/15 04:24:40;;;;;;;0.73;0.73;;;3.80;99.90;;;;;;4956461;28;20196;-64
2023/04/15 04:27:05;;;;;;;1.67;1.60;;;3.70;99.90;;;;;;4957170;29;20177;-63
2023/04/15 04:29:31;;;;;;;1.57;1.50;;;3.70;99.90;;;;;;4956905;29;20186;-64
2023/04/15 04:31:57;;;;;;;2.30;2.13;;;3.70;99.90;;;;;;4956281;29;20279;-63
2023/04/15 04:34:22;;;;;;;1.83;1.73;;;3.70;99.90;;;;;;4953327;29;20945;-64
2023/04/15 04:36:48;;;;;;;1.47;1.37;;;3.70;99.90;;;;;;4956694;29;20546;-62
2023/04/15 04:39:13;;;;;;;1.27;1.27;;;3.70;99.90;;;;;;4956710;29;20239;-63
2023/04/15 04:41:39;;;;;;;2.50;2.40;;;3.60;99.90;;;;;;4939192;29;20181;-63
2023/04/15 04:44:04;;;;;;;0.93;0.90;;;3.60;99.90;;;;;;4956170;29;20200;-64
2023/04/15 04:46:30;;;;;;;2.73;2.53;;;3.60;99.90;;;;;;4956515;29;20180;-62
2023/04/15 04:48:55;;;;;;;1.67;1.57;;;3.60;99.90;;;;;;4955702;29;20232;-64
2023/04/15 04:51:21;;;;;;;1.00;1.00;;;3.70;99.90;;;;;;4956210;29;20226;-63
2023/04/15 04:53:47;;;;;;;1.23;1.10;;;3.70;99.90;;;;;;4955893;29;20229;-64
2023/04/15 04:56:12;;;;;;;1.13;1.13;;;3.70;99.90;;;;;;4956270;29;20631;-63
2023/04/15 04:58:38;;;;;;;1.67;1.57;;;3.70;99.90;;;;;;4956207;29;20177;-64
2023/04/15 05:01:04;;;;;;;1.87;1.73;;;3.80;99.90;;;;;;4956255;29;20177;-63
2023/04/15 05:03:29;;;;;;;1.37;1.37;;;3.80;99.90;;;;;;4955567;29;20177;-64
2023/04/15 05:05:55;;;;;;;3.60;2.00;;;3.90;99.90;;;;;;4955874;29;20212;-63
2023/04/15 05:08:21;;;;;;;3.27;3.07;;;3.90;99.90;;;;;;4955892;29;20264;-64
2023/04/15 05:10:46;;;;;;;1.50;1.50;;;3.90;99.90;;;;;;4955709;29;20207;-63
2023/04/15 05:13:12;;;;;;;2.57;2.47;;;3.80;99.90;;;;;;4955790;29;20172;-63
2023/04/15 05:15:40;;;;;;;2.90;1.57;;;3.90;99.90;;;;;;4956014;29;20239;-63
2023/04/15 05:18:05;;;;;;;4.47;2.63;;;3.90;99.90;;;;;;4955166;28;20177;-63
2023/04/15 05:20:31;;;;;;;2.10;2.00;;;3.90;99.90;;;;;;4967763;28;20180;-63
2023/04/15 05:22:56;;;;;;;1.30;1.20;;;4.00;99.90;;;;;;4971693;28;20219;-62
2023/04/15 05:25:22;;;;;;;3.07;2.00;;;4.00;99.90;;;;;;4954946;28;20204;-63
2023/04/15 05:27:48;;;;;;;3.33;2.00;;;4.00;99.90;;;;;;4955420;29;20695;-63
2023/04/15 05:30:13;;;;;;;1.87;1.77;;;4.10;99.90;;;;;;4955400;29;20201;-63
2023/04/15 05:32:39;;;;;;;2.33;1.67;;;4.10;99.90;;;;;;4955196;28;20264;-62
2023/04/15 05:35:05;;;;;;;1.83;1.70;;;4.20;99.90;;;;;;4954639;28;20207;-63
2023/04/15 05:37:31;;;;;;;3.85;2.47;;;4.20;99.90;;;;;;4955688;29;20807;-62
2023/04/15 05:39:56;;;;;;;1.37;1.30;;;4.40;99.90;;;;;;4955503;29;20200;-62
2023/04/15 05:42:22;;;;;;;2.23;2.10;;;4.40;99.90;;;;;;4955604;29;20256;-62
2023/04/15 05:44:47;;;;;;;1.23;1.23;;;4.60;99.90;;;;;;4955154;29;20201;-64
2023/04/15 05:47:13;;;;;;;2.77;2.50;;;4.70;99.90;;;;;;4938143;29;20169;-62
2023/04/15 05:49:39;;;;;;;2.10;2.00;;;4.90;99.90;;;;;;4955076;29;20177;-62
2023/04/15 05:52:04;;;;;;;3.63;3.20;;;5.00;99.90;;;;;;4955282;29;20186;-62
2023/04/15 05:54:30;;;;;;;5.60;2.20;;;5.00;99.90;;;;;;4954943;29;20204;-62
2023/04/15 05:56:57;;;;;;;2.57;1.83;;;5.10;99.90;;;;;;4955553;29;20195;-62
2023/04/15 05:59:22;;;;;;;2.33;2.17;;;5.20;99.90;;;;;;4955530;29;20177;-61
2023/04/15 06:01:48;;;;;;;1.40;1.30;;;5.40;99.90;;;;;;4955640;29;20189;-60
2023/04/15 06:04:14;;;;;;;1.65;1.55;;;5.70;99.90;;;;;;4954231;29;20206;-61
2023/04/15 06:06:40;;;;;;;1.50;1.40;;;5.90;99.90;;;;;;4955293;28;20180;-61
2023/04/15 06:09:05;;;;;;;1.57;1.47;;;6.10;99.90;;;;;;4955365;29;20178;-62
2023/04/15 06:11:31;;;;;;;1.83;1.73;;;6.20;99.90;;;;;;4955092;29;20739;-63
2023/04/15 06:13:56;;;;;;;1.53;1.43;;;6.40;99.90;;;;;;4954999;29;20181;-63
2023/04/15 06:16:22;;;;;;;1.80;1.70;;;6.60;99.90;;;;;;4957899;28;20204;-63
2023/04/15 06:18:48;;;;;;;1.87;1.53;;;6.60;99.90;;;;;;4958981;29;20208;-65
2023/04/15 06:21:14;;;;;;;1.80;1.70;;;6.70;99.90;;;;;;4958023;29;20185;-69
2023/04/15 06:23:40;;;;;;;1.95;1.85;;;6.80;99.90;;;;;;4955915;29;20694;-65
2023/04/15 06:26:06;;;;;;;3.80;1.58;;;6.90;99.90;;;;;;4955425;29;20271;-67
2023/04/15 06:28:32;;;;;;;2.30;1.77;;;7.00;99.90;;;;;;4957234;29;20204;-63
2023/04/15 06:30:57;;;;;;;2.37;2.20;;;7.10;99.90;;;;;;4957298;29;20483;-64
2023/04/15 06:33:23;;;;;;;3.73;2.27;;;7.20;99.90;;;;;;4942499;29;20259;-67
2023/04/15 06:35:49;;;;;;;1.77;1.67;;;7.20;99.90;;;;;;4941953;29;20287;-62
2023/04/15 06:38:14;;;;;;;3.00;2.80;;;7.30;99.90;;;;;;4958179;29;20258;-61
2023/04/15 06:40:41;;;;;;;4.83;2.77;;;7.40;99.90;;;;;;4939744;29;20638;-67
2023/04/15 06:43:06;;;;;;;4.25;3.90;;;7.50;99.90;;;;;;4956388;28;20539;-69
2023/04/15 06:45:32;;;;;;;2.53;2.33;;;7.50;99.90;;;;;;4960125;29;20188;-67
2023/04/15 06:47:58;;;;;;;4.60;2.83;;;7.60;99.90;;;;;;4959503;29;20193;-66
2023/04/15 06:50:24;;;;;;;11.23;6.20;;;7.70;99.90;;;;;;4959204;29;20670;-67
2023/04/15 06:52:49;;;;;;;4.00;2.60;;;7.80;99.90;;;;;;4959230;29;20186;-67
2023/04/15 06:55:15;;;;;;;2.40;2.20;;;7.90;99.90;;;;;;4959220;29;20193;-68
2023/04/15 06:57:40;;;;;;;2.67;2.03;;;8.00;99.90;;;;;;4958870;29;20168;-67
2023/04/15 07:00:07;;;;;;;1.70;1.60;;;8.00;99.90;;;;;;4941794;29;20183;-68
2023/04/15 07:02:33;;;;;;;1.95;1.20;;;8.10;99.90;;;;;;4958502;29;20185;-67
2023/04/15 07:04:58;;;;;;;2.07;1.97;;;8.40;99.90;;;;;;4957797;28;20196;-67
2023/04/15 07:07:24;;;;;;;2.00;1.60;;;8.50;99.90;;;;;;4958469;29;20420;-67
2023/04/15 07:09:52;;;;;;;1.40;1.30;;;8.50;99.90;;;;;;4958346;29;20183;-66
2023/04/15 07:12:18;;;;;;;2.00;1.90;;;8.60;99.90;;;;;;4957956;29;20190;-65
2023/04/15 07:14:43;;;;;;;4.20;2.70;;;8.80;99.90;;;;;;4957481;29;20194;-65
2023/04/15 07:17:09;;;;;;;4.23;3.83;;;8.90;99.90;;;;;;4940829;29;20168;-67
2023/04/15 07:19:35;;;;;;;2.10;2.00;;;8.90;99.90;;;;;;4958117;29;20200;-65
2023/04/15 07:22:01;;;;;;;1.90;1.70;;;9.00;99.90;;;;;;4957998;29;20673;-65
2023/04/15 07:24:26;;;;;;;2.33;2.10;;;9.30;99.90;;;;;;4956206;29;20433;-65
2023/04/15 07:26:58;;;;;;;1.60;1.30;;;9.60;99.90;;;;;;4957408;29;20258;-67
2023/04/15 07:29:25;;;;;;;1.90;1.80;;;9.90;99.90;;;;;;4957794;29;20422;-66
2023/04/15 07:31:50;;;;;;;2.37;1.77;;;10.30;99.90;;;;;;4957847;29;20470;-66
2023/04/15 07:34:16;;;;;;;2.63;2.40;;;10.70;99.90;;;;;;4957236;29;20413;-67
2023/04/15 07:36:42;;;;;;;2.10;2.00;;;11.20;99.90;;;;;;4957851;29;20184;-66
2023/04/15 07:39:08;;;;;;;2.60;1.63;;;11.80;99.90;;;;;;4957254;29;20177;-67
2023/04/15 07:41:34;;;;;;;2.17;2.07;;;12.20;98.30;;;;;;4957479;29;20208;-67
2023/04/15 07:43:59;;;;;;;1.93;1.70;;;12.60;97.70;;;;;;4956855;29;20212;-68
2023/04/15 07:46:26;;;;;;;1.87;1.77;;;13.00;97.30;;;;;;4957566;29;20421;-68
2023/04/15 07:48:52;;;;;;;2.20;2.00;;;13.20;96.20;;;;;;4956785;29;20203;-62
2023/04/15 07:51:19;;;;;;;2.50;2.13;;;13.50;95.60;;;;;;4957238;29;20502;-65
2023/04/15 07:53:45;;;;;;;2.23;2.10;;;13.60;95.00;;;;;;4956650;28;20427;-65
2023/04/15 07:56:11;;;;;;;2.70;2.47;;;13.90;94.30;;;;;;4957360;29;20424;-64
2023/04/15 07:58:37;;;;;;;4.03;1.90;;;14.20;94.20;;;;;;4957301;29;20416;-67
2023/04/15 08:01:04;;;;;;;3.53;2.47;;;14.60;93.80;;;;;;4957264;29;20441;-66
2023/04/15 08:03:30;;;;;;;2.57;2.30;;;15.00;92.60;;;;;;4956689;29;20188;-67
2023/04/15 08:05:56;;;;;;;2.17;1.97;;;15.40;91.50;;;;;;4956862;29;20451;-67
2023/04/15 08:08:21;;;;;;;1.93;1.80;;;15.70;91.80;;;;;;4957060;29;20177;-68
2023/04/15 08:10:47;;;;;;;2.73;2.23;;;16.40;90.60;;;;;;4957169;29;20452;-63
2023/04/15 08:13:13;;;;;;;2.30;2.10;;;17.50;90.30;;;;;;4956710;29;20260;-64
2023/04/15 08:15:38;;;;;;;2.40;2.20;;;18.80;87.40;;;;;;4939790;29;20297;-62
2023/04/15 08:18:04;;;;;;;2.50;2.30;;;19.80;84.60;;;;;;4956174;29;20211;-67
2023/04/15 08:20:29;;;;;;;2.03;1.90;;;20.30;78.90;;;;;;4957233;29;20236;-66
2023/04/15 08:22:55;;;;;;;3.80;2.47;;;20.30;76.20;;;;;;4956441;29;20259;-67
2023/04/15 08:25:21;;;;;;;2.07;1.97;;;20.50;77.60;;;;;;4956488;29;20227;-64
2023/04/15 08:27:47;;;;;;;2.30;2.10;;;21.10;74.10;;;;;;4956437;29;20459;-63
2023/04/15 08:30:13;;;;;;;2.40;2.20;;;21.30;75.00;;;;;;4955926;29;20209;-62
2023/04/15 08:32:39;;;;;;;2.30;2.20;;;21.20;73.00;;;;;;4956360;29;20187;-62
2023/04/15 08:35:05;;;;;;;2.50;2.30;;;21.20;74.40;;;;;;4938530;29;20461;-63
2023/04/15 08:37:30;;;;;;;2.83;2.47;;;21.30;71.30;;;;;;4955552;29;20188;-63
2023/04/15 08:39:56;;;;;;;2.27;2.17;;;21.60;71.20;;;;;;4956008;29;20399;-65
2023/04/15 08:42:32;;;;;;;2.60;2.40;;;21.90;70.10;;;;;;4956502;29;20185;-65
2023/04/15 08:45:00;;;;;;;2.47;2.30;;;22.20;68.70;;;;;;4955462;29;20204;-66
2023/04/15 08:47:30;;;;;;;3.77;2.50;;;22.90;68.50;;;;;;4955982;29;20413;-65
2023/04/15 08:49:57;;;;;;;2.30;2.10;;;23.60;68.80;;;;;;4956033;29;20416;-64
2023/04/15 08:52:27;;;;;;;2.50;2.40;;;24.20;68.70;;;;;;4955520;29;20809;-66
2023/04/15 08:55:00;;;;;;;4.67;4.00;;;24.40;64.40;;;;;;4955497;29;21037;-67
2023/04/15 08:57:30;;;;;;;6.00;5.20;;;24.50;63.00;;;;;;4955713;29;20403;-67
2023/04/15 08:59:56;;;;;;;6.33;5.80;;;24.40;63.50;;;;;;4956108;29;20424;-68
2023/04/15 09:02:24;;;;;;;7.97;7.27;;;24.00;64.00;;;;;;4955630;29;20470;-68
2023/04/15 09:04:50;;;;;;;28.07;18.23;;;23.90;66.00;;;;;;4938294;29;20489;-67
2023/04/15 09:07:16;;;;;;;4.13;3.67;;;23.20;64.50;;;;;;4953965;28;20454;-67
2023/04/15 09:09:42;;;;;;;3.40;2.80;;;22.90;67.40;;;;;;4955573;29;20243;-67
2023/04/15 09:12:08;;;;;;;4.20;3.33;;;22.30;66.70;;;;;;4938491;29;20205;-67
2023/04/15 09:14:33;;;;;;;2.27;2.10;;;21.90;67.50;;;;;;4955072;29;20216;-66
2023/04/15 09:17:03;;;;;;;2.57;2.37;;;22.20;67.30;;;;;;4955732;29;20458;-65
2023/04/15 09:19:30;;;;;;;2.23;2.03;;;22.40;66.50;;;;;;4958572;28;20168;-65
2023/04/15 09:21:57;;;;;;;2.03;1.67;;;22.60;65.40;;;;;;4954441;29;20464;-71
2023/04/15 09:24:23;;;;;;;2.20;2.10;;;22.40;66.60;;;;;;4953779;29;20474;-71
2023/04/15 09:26:54;;;;;;;3.30;2.10;;;22.30;66.20;;;;;;4954753;29;20409;-70
2023/04/15 09:29:19;;;;;;;2.00;1.87;;;22.00;65.60;;;;;;4955665;28;20782;-70
2023/04/15 09:31:46;;;;;;;1.93;1.83;;;21.20;66.10;;;;;;4951932;29;20517;-66
2023/04/15 09:34:11;;;;;;;1.70;1.60;;;20.30;68.00;;;;;;4937789;29;20227;-68
2023/04/15 09:36:46;;;;;;;1.90;1.80;;;19.70;70.30;;;;;;4937102;29;20439;-69
2023/04/15 09:39:12;;;;;;;2.07;1.90;;;19.50;72.40;;;;;;4955260;29;20500;-69
2023/04/15 09:41:39;;;;;;;2.37;2.00;;;19.20;73.90;;;;;;4955450;29;20912;-69
2023/04/15 09:44:05;;;;;;;1.90;1.80;;;19.30;76.80;;;;;;4954609;29;20566;-71
2023/04/15 09:46:44;;;;;;;1.90;1.67;;;19.20;76.00;;;;;;4955049;29;20797;-75
2023/04/15 09:49:11;;;;;;;1.23;1.23;;;19.00;76.20;;;;;;4955407;29;20420;-74
2023/04/15 09:51:37;;;;;;;2.07;1.97;;;19.30;73.90;;;;;;4954511;29;20475;-69
2023/04/15 09:54:03;;;;;;;1.47;1.43;;;19.50;74.90;;;;;;4954685;29;20407;-69
2023/04/15 09:56:41;;;;;;;2.10;1.77;;;19.40;73.10;;;;;;4955249;29;20419;-73
2023/04/15 09:59:07;;;;;;;1.90;1.80;;;19.10;73.70;;;;;;4955321;29;20381;-73
2023/04/15 10:01:33;;;;;;;1.90;1.80;;;18.70;73.70;;;;;;4955290;29;20406;-70
2023/04/15 10:04:02;;;;;;;1.37;1.30;;;18.40;73.70;;;;;;4954406;29;20485;-71
2023/04/15 10:06:29;;;;;;;2.30;1.47;;;18.00;75.00;;;;;;4954710;29;20439;-68
2023/04/15 10:08:56;;;;;;;1.90;1.80;;;18.10;76.30;;;;;;4937818;29;20449;-71
2023/04/15 10:11:23;;;;;;;3.33;2.10;;;18.30;75.90;;;;;;4954782;29;20434;-70
2023/04/15 10:13:50;;;;;;;1.40;1.40;;;19.00;75.90;;;;;;4954531;29;20375;-67
2023/04/15 10:16:19;;;;;;;2.23;1.53;;;19.70;75.60;;;;;;4954994;29;20381;-68
2023/04/15 10:18:54;;;;;;;1.70;1.60;;;20.40;69.60;;;;;;4937416;29;20424;-73
2023/04/15 10:21:22;;;;;;;1.60;1.50;;;20.80;69.80;;;;;;4944785;29;20420;-69
2023/04/15 10:23:48;;;;;;;2.10;1.90;;;21.00;69.60;;;;;;4958026;29;20984;-70
2023/04/15 10:26:16;;;;;;;1.33;1.10;;;20.90;69.30;;;;;;4958901;29;20383;-71
2023/04/15 10:28:48;;;;;;;1.40;1.27;;;20.60;66.20;;;;;;4958867;29;20397;-74
2023/04/15 10:31:14;;;;;;;1.00;1.00;;;20.20;68.90;;;;;;4960555;28;20492;-68
2023/04/15 10:33:42;;;;;;;1.50;1.40;;;19.90;68.60;;;;;;4960726;28;20420;-71
2023/04/15 10:36:07;;;;;;;1.57;1.47;;;19.70;69.40;;;;;;4958404;29;20817;-68
2023/04/15 10:38:37;;;;;;;1.40;1.30;;;19.30;69.50;;;;;;4958492;29;20415;-72
2023/04/15 10:41:19;;;;;;;1.30;1.20;;;19.00;69.70;;;;;;4958745;29;20206;-75
2023/04/15 10:43:52;;;;;;;1.30;1.30;;;18.60;71.70;;;;;;4957708;29;20418;-75
2023/04/15 10:46:44;;;;;;;1.10;1.00;;;18.70;73.30;;;;;;4939397;29;20502;-72
2023/04/15 10:49:23;;;;;;;1.33;1.20;;;19.10;71.60;;;;;;4922027;29;20934;-68
2023/04/15 10:51:58;;;;;;;2.03;1.57;;;19.40;69.90;;;;;;4921951;29;20461;-67
2023/04/15 10:54:23;;;;;;;2.30;1.93;;;19.50;69.20;;;;;;4946044;29;20414;-71
2023/04/15 10:57:08;;;;;;;2.40;2.23;;;19.50;70.00;;;;;;4957946;29;20404;-69
2023/04/15 10:59:58;;;;;;;1.60;1.50;;;19.50;70.80;;;;;;4957825;29;20272;-75
2023/04/15 11:02:42;;;;;;;1.87;1.27;;;19.70;71.40;;;;;;4957438;29;20407;-69
2023/04/15 11:05:09;;;;;;;1.13;1.10;;;19.70;67.90;;;;;;4957385;28;20420;-68
2023/04/15 11:07:47;;;;;;;1.80;1.70;;;19.50;70.60;;;;;;4957930;29;20888;-72
2023/04/15 11:10:13;;;;;;;1.70;1.43;;;19.30;68.70;;;;;;4957440;29;20463;-69
2023/04/15 11:12:39;;;;;;;1.40;1.30;;;18.80;68.60;;;;;;4940637;29;20432;-71
2023/04/15 11:15:28;;;;;;;1.70;1.60;;;18.40;71.10;;;;;;4957425;29;20233;-68
2023/04/15 11:17:55;;;;;;;1.20;1.20;;;18.30;71.70;;;;;;4957355;29;20419;-70
2023/04/15 11:20:21;;;;;;;1.70;1.60;;;18.00;74.20;;;;;;4957764;29;20448;-69
2023/04/15 11:22:49;;;;;;;1.70;1.60;;;18.10;73.60;;;;;;4957418;29;20429;-68
2023/04/15 11:25:25;;;;;;;2.17;1.77;;;18.10;71.70;;;;;;4957169;29;20198;-72
2023/04/15 11:27:53;;;;;;;2.17;2.07;;;18.10;73.40;;;;;;4957542;29;20380;-70
2023/04/15 11:30:23;;;;;;;1.80;1.70;;;18.10;72.80;;;;;;4956994;28;20472;-67
2023/04/15 11:32:50;;;;;;;2.67;2.40;;;17.80;71.70;;;;;;4956930;29;20406;-65
2023/04/15 11:35:17;;;;;;;2.80;2.10;;;17.60;73.40;;;;;;4957133;29;20482;-69
2023/04/15 11:37:43;;;;;;;1.80;1.70;;;17.40;74.20;;;;;;4956958;29;20437;-70
2023/04/15 11:40:09;;;;;;;1.60;1.50;;;17.10;75.50;;;;;;4956904;29;20428;-69
2023/04/15 11:42:35;;;;;;;1.70;1.60;;;16.80;76.50;;;;;;4939825;29;20395;-72
2023/04/15 11:45:10;;;;;;;2.67;2.20;;;16.60;76.80;;;;;;4956645;28;20777;-72
2023/04/15 11:47:37;;;;;;;2.53;2.27;;;16.40;78.90;;;;;;4957238;29;20931;-74
2023/04/15 11:50:18;;;;;;;2.40;2.20;;;16.10;79.00;;;;;;4956781;29;20412;-69
2023/04/15 11:52:56;;;;;;;2.03;1.83;;;16.00;79.90;;;;;;4937884;29;20410;-70
2023/04/15 11:55:23;;;;;;;1.80;1.70;;;16.00;77.50;;;;;;4937855;29;20408;-74
2023/04/15 11:58:27;;;;;;;2.27;2.17;;;16.10;79.20;;;;;;4937686;29;20417;-69
2023/04/15 12:00:57;;;;;;;1.50;1.33;;;16.00;78.90;;;;;;4937116;29;20421;-68
2023/04/15 12:03:27;;;;;;;1.63;1.53;;;16.00;79.90;;;;;;4952245;29;20448;-68
2023/04/15 12:06:23;;;;;;;1.73;1.63;;;16.00;81.90;;;;;;4956481;29;20427;-68
2023/04/15 12:08:57;;;;;;;1.47;1.40;;;15.80;79.30;;;;;;4944335;29;20797;-65
2023/04/15 12:11:25;;;;;;;1.23;1.23;;;15.40;77.20;;;;;;4956569;29;20462;-67
2023/04/15 12:13:53;;;;;;;1.90;1.80;;;14.90;79.80;;;;;;4956459;29;20381;-72
2023/04/15 12:16:19;;;;;;;1.43;1.33;;;14.60;82.40;;;;;;4956056;29;20422;-72
2023/04/15 12:18:47;;;;;;;1.47;1.37;;;14.50;84.20;;;;;;4956492;29;20414;-68
2023/04/15 12:21:13;;;;;;;2.00;1.20;;;14.60;81.40;;;;;;4956242;29;20453;-66
2023/04/15 12:23:46;;;;;;;1.40;1.30;;;14.60;81.60;;;;;;4957049;29;20505;-68
2023/04/15 12:26:12;;;;;;;1.00;1.00;;;14.60;82.30;;;;;;4956406;29;20489;-66
2023/04/15 12:28:41;;;;;;;1.93;1.83;;;14.70;83.00;;;;;;4939308;29;20392;-66
2023/04/15 12:31:08;;;;;;;1.33;1.10;;;14.70;81.70;;;;;;4956006;29;20676;-66
2023/04/15 12:33:34;;;;;;;1.50;1.40;;;14.50;82.10;;;;;;4955980;29;20413;-68
2023/04/15 12:35:59;;;;;;;2.93;1.87;;;14.20;86.10;;;;;;4938985;29;20468;-69
2023/04/15 12:38:25;;;;;;;1.97;1.87;;;13.80;89.20;;;;;;4955797;29;20475;-72
2023/04/15 12:40:50;;;;;;;1.73;1.63;;;13.40;91.30;;;;;;4936875;29;20262;-69
2023/04/15 12:43:16;;;;;;;3.93;3.03;;;13.10;92.80;;;;;;4956298;29;20180;-67
2023/04/15 12:45:42;;;;;;;1.70;1.60;;;12.90;94.50;;;;;;4939079;29;20671;-67
2023/04/15 12:48:08;;;;;;;1.43;1.40;;;12.60;96.50;;;;;;4956198;29;20411;-64
2023/04/15 12:50:34;;;;;;;2.00;1.10;;;12.40;97.40;;;;;;4956117;29;20203;-66
2023/04/15 12:53:00;;;;;;;1.50;1.30;;;12.30;97.80;;;;;;4955386;29;20478;-65
2023/04/15 12:55:27;;;;;;;1.40;1.30;;;12.10;98.50;;;;;;4938496;29;20529;-70
2023/04/15 12:57:52;;;;;;;1.20;1.20;;;11.90;99.10;;;;;;4938539;29;20644;-70
2023/04/15 13:00:18;;;;;;;1.60;1.50;;;11.90;99.90;;;;;;4956299;29;20449;-70
2023/04/15 13:02:44;;;;;;;1.93;1.83;;;12.00;99.90;;;;;;4956223;29;20657;-72
2023/04/15 13:05:09;;;;;;;1.30;1.30;;;11.90;99.00;;;;;;4955123;29;20547;-69
2023/04/15 13:07:35;;;;;;;1.27;1.27;;;12.00;98.60;;;;;;4954841;29;20188;-69
2023/04/15 13:10:01;;;;;;;0.97;0.97;;;12.10;99.10;;;;;;4951050;29;20248;-67
2023/04/15 13:12:26;;;;;;;1.50;1.40;;;12.20;97.30;;;;;;4954687;29;20182;-69
2023/04/15 13:14:52;;;;;;;0.97;0.97;;;12.30;96.00;;;;;;4955783;29;20439;-70
2023/04/15 13:17:19;;;;;;;1.10;1.10;;;12.40;93.70;;;;;;4955711;29;20583;-72
2023/04/15 13:19:45;;;;;;;0.70;0.70;;;12.50;93.70;;;;;;4956676;29;20179;-71
2023/04/15 13:22:11;;;;;;;4.53;1.20;;;12.60;93.30;;;;;;4960105;29;20467;-70
2023/04/15 13:24:38;;;;;;;0.87;0.80;;;12.80;92.90;;;;;;4971718;28;20452;-70
2023/04/15 13:27:04;;;;;;;1.40;1.20;;;12.80;91.80;;;;;;4961647;29;20418;-69
2023/04/15 13:29:29;;;;;;;1.00;0.90;;;12.90;91.60;;;;;;4963489;29;20406;-72
2023/04/15 13:31:55;;;;;;;0.90;0.90;;;13.00;90.60;;;;;;4962953;29;20539;-68
2023/04/15 13:34:21;;;;;;;1.03;1.03;;;13.10;90.10;;;;;;4962069;29;20283;-69
2023/04/15 13:36:46;;;;;;;1.07;1.07;;;13.30;90.00;;;;;;4960738;29;20899;-70
2023/04/15 13:39:12;;;;;;;0.73;0.73;;;13.40;89.10;;;;;;4961860;29;20204;-69
2023/04/15 13:41:37;;;;;;;0.77;0.77;;;13.40;86.30;;;;;;4959833;29;20173;-68
2023/04/15 13:44:04;;;;;;;1.43;0.93;;;13.50;86.20;;;;;;4955309;29;20666;-70
2023/04/15 13:46:30;;;;;;;0.93;0.93;;;13.60;86.60;;;;;;4955568;29;20239;-75
2023/04/15 13:48:55;;;;;;;0.60;0.60;;;13.70;88.40;;;;;;4955080;29;20429;-68
2023/04/15 13:51:21;;;;;;;1.07;1.00;;;13.80;86.30;;;;;;4955127;28;20200;-67
2023/04/15 13:53:46;;;;;;;0.97;0.97;;;13.90;86.20;;;;;;4954552;29;20177;-70
2023/04/15 13:56:12;;;;;;;1.13;1.03;;;13.90;85.90;;;;;;4949963;29;20194;-71
2023/04/15 13:58:39;;;;;;;0.70;0.70;;;14.00;87.60;;;;;;4955015;29;20207;-71
2023/04/15 14:01:05;;;;;;;0.67;0.67;;;13.90;83.80;;;;;;4954896;29;20260;-69
2023/04/15 14:03:31;;;;;;;0.40;0.40;;;13.90;84.10;;;;;;4954966;29;20478;-68
2023/04/15 14:05:57;;;;;;;1.07;0.97;;;13.80;82.20;;;;;;4937458;29;20526;-72
2023/04/15 14:08:24;;;;;;;0.60;0.60;;;13.70;80.40;;;;;;4954981;29;20224;-71
2023/04/15 14:10:50;;;;;;;0.97;0.87;;;13.60;78.40;;;;;;4955257;29;20814;-72
2023/04/15 14:13:15;;;;;;;0.80;0.80;;;13.60;78.30;;;;;;4955096;29;20409;-70
2023/04/15 14:15:41;;;;;;;0.57;0.57;;;13.50;78.40;;;;;;4937108;29;20204;-69
2023/04/15 14:18:07;;;;;;;0.53;0.53;;;13.50;80.50;;;;;;4954343;29;20223;-70
2023/04/15 14:20:32;;;;;;;0.70;0.70;;;13.40;78.10;;;;;;4953960;29;20264;-72
2023/04/15 14:22:58;;;;;;;0.63;0.60;;;13.30;77.70;;;;;;4937179;29;20232;-68
2023/04/15 14:25:25;;;;;;;0.53;0.53;;;13.20;78.40;;;;;;4954853;29;20690;-67
2023/04/15 14:27:51;;;;;;;0.47;0.47;;;13.10;78.00;;;;;;4937773;29;20219;-66
2023/04/15 14:30:17;;;;;;;0.40;0.40;;;13.00;80.10;;;;;;4954530;29;20456;-68
2023/04/15 14:32:42;;;;;;;1.00;0.73;;;12.90;80.00;;;;;;4955159;29;20698;-69
2023/04/15 14:35:08;;;;;;;1.27;1.27;;;12.80;80.10;;;;;;4954058;29;20202;-68
2023/04/15 14:37:33;;;;;;;0.70;0.63;;;12.70;80.40;;;;;;4954878;29;20559;-63
2023/04/15 14:39:59;;;;;;;0.60;0.50;;;12.70;82.30;;;;;;4954858;29;20270;-69
2023/04/15 14:42:25;;;;;;;1.03;0.87;;;12.60;82.30;;;;;;4955234;29;20212;-66
2023/04/15 14:44:50;;;;;;;0.80;0.80;;;12.60;83.60;;;;;;4954231;29;20542;-68
2023/04/15 14:47:16;;;;;;;0.63;0.63;;;12.60;84.70;;;;;;4954606;29;20183;-63
2023/04/15 14:49:42;;;;;;;0.73;0.60;;;12.50;84.80;;;;;;4954315;29;20184;-66
2023/04/15 14:52:07;;;;;;;1.30;0.73;;;12.50;85.20;;;;;;4954662;29;20203;-66
2023/04/15 14:54:33;;;;;;;0.50;0.50;;;12.50;86.30;;;;;;4954458;29;20188;-66
2023/04/15 14:56:58;;;;;;;0.63;0.63;;;12.50;86.10;;;;;;4937354;29;20251;-61
2023/04/15 14:59:24;;;;;;;0.80;0.80;;;12.50;86.90;;;;;;4950021;29;20678;-61
2023/04/15 15:01:49;;;;;;;0.73;0.60;;;12.50;87.30;;;;;;4954713;29;20196;-61
2023/04/15 15:04:15;;;;;;;0.97;0.97;;;12.50;87.60;;;;;;4955118;28;20609;-73
2023/04/15 15:06:41;;;;;;;1.17;0.60;;;12.50;86.80;;;;;;4958083;28;20688;-61
2023/04/15 15:09:07;;;;;;;1.23;1.17;;;12.50;87.20;;;;;;4958329;29;20262;-64
2023/04/15 15:11:32;;;;;;;1.37;0.80;;;12.40;87.30;;;;;;4958327;29;20207;-63
2023/04/15 15:13:58;;;;;;;0.60;0.50;;;12.20;86.90;;;;;;4957232;29;20442;-64
2023/04/15 15:16:24;;;;;;;0.50;0.50;;;12.20;88.70;;;;;;4957538;29;20524;-68
2023/04/15 15:18:50;;;;;;;0.60;0.60;;;12.00;89.90;;;;;;4953633;29;20242;-64
2023/04/15 15:21:16;;;;;;;0.60;0.60;;;12.00;90.10;;;;;;4957860;29;20191;-71
2023/04/15 15:23:41;;;;;;;1.50;1.10;;;11.90;90.20;;;;;;4954794;29;20431;-67
2023/04/15 15:26:07;;;;;;;1.27;0.67;;;11.80;90.40;;;;;;4925156;29;20429;-67
2023/04/15 15:28:33;;;;;;;0.60;0.60;;;11.70;90.50;;;;;;4957709;29;20263;-65
2023/04/15 15:30:59;;;;;;;0.57;0.57;;;11.80;91.00;;;;;;4958010;29;20204;-63
2023/04/15 15:33:25;;;;;;;0.80;0.80;;;11.70;91.30;;;;;;4957555;29;20983;-62
2023/04/15 15:35:50;;;;;;;0.70;0.60;;;11.60;92.60;;;;;;4957637;29;20207;-63
2023/04/15 15:38:16;;;;;;;0.70;0.70;;;11.50;92.80;;;;;;4957708;29;20290;-62
2023/04/15 15:40:42;;;;;;;0.67;0.67;;;11.50;93.80;;;;;;4957307;29;20191;-63
2023/04/15 15:43:08;;;;;;;0.80;0.80;;;11.40;95.50;;;;;;4956463;29;20717;-63
2023/04/15 15:45:34;;;;;;;1.27;0.93;;;11.40;95.90;;;;;;4957582;29;20285;-63
2023/04/15 15:48:00;;;;;;;1.07;0.83;;;11.30;95.10;;;;;;4957359;29;20468;-63
2023/04/15 15:50:26;;;;;;;3.20;0.63;;;11.10;95.20;;;;;;4957340;29;20491;-63
2023/04/15 15:52:52;;;;;;;0.80;0.80;;;11.10;95.20;;;;;;4957442;29;20920;-62
2023/04/15 15:55:18;;;;;;;1.13;1.03;;;11.10;96.10;;;;;;4956254;29;20428;-63
2023/04/15 15:57:43;;;;;;;0.70;0.70;;;11.00;96.50;;;;;;4955548;29;20578;-64
2023/04/15 16:00:10;;;;;;;0.90;0.80;;;11.10;96.40;;;;;;4955874;29;20239;-63
2023/04/15 16:02:36;;;;;;;1.67;0.80;;;11.10;96.00;;;;;;4955753;29;20257;-63
2023/04/15 16:05:02;;;;;;;2.10;1.27;;;11.10;96.70;;;;;;4955372;29;20403;-63
2023/04/15 16:07:27;;;;;;;0.93;0.80;;;11.00;97.10;;;;;;4956032;29;20900;-63
2023/04/15 16:09:53;;;;;;;0.90;0.90;;;10.90;98.40;;;;;;4956304;29;20650;-63
2023/04/15 16:12:19;;;;;;;0.83;0.83;;;10.80;99.20;;;;;;4956888;29;20732;-63
2023/04/15 16:14:46;;;;;;;0.93;0.80;;;10.70;99.90;;;;;;4956680;28;20181;-63
2023/04/15 16:17:11;;;;;;;0.85;0.85;;;10.60;99.90;;;;;;4957123;29;20173;-63
2023/04/15 16:19:37;;;;;;;5.37;1.57;;;10.50;99.90;;;;;;4957174;29;20169;-63
2023/04/15 16:22:03;;;;;;;1.30;1.20;;;10.30;99.90;;;;;;4957321;29;20259;-63
2023/04/15 16:24:29;;;;;;;0.70;0.70;;;10.20;99.90;;;;;;4956712;29;20706;-64
2023/04/15 16:26:57;;;;;;;1.00;1.00;;;10.10;99.90;;;;;;4957141;29;20190;-63
2023/04/15 16:29:22;;;;;;;1.30;1.20;;;10.00;99.90;;;;;;4957009;29;20555;-64
2023/04/15 16:31:48;;;;;;;1.30;1.20;;;9.90;99.90;;;;;;4956950;29;20207;-64
2023/04/15 16:34:14;;;;;;;0.73;0.73;;;9.90;99.90;;;;;;4956976;29;20284;-64
2023/04/15 16:36:40;;;;;;;0.80;0.80;;;9.80;99.90;;;;;;4958204;29;20609;-62
2023/04/15 16:39:06;;;;;;;1.27;1.27;;;9.80;99.90;;;;;;4957712;29;20184;-63
2023/04/15 16:41:33;;;;;;;0.90;0.90;;;9.70;99.90;;;;;;4957559;29;20417;-64
2023/04/15 16:43:59;;;;;;;1.35;1.15;;;9.60;99.90;;;;;;4939001;29;20231;-65
2023/04/15 16:46:25;;;;;;;1.10;1.10;;;9.60;99.90;;;;;;4956912;29;20277;-63
2023/04/15 16:48:51;;;;;;;1.30;1.30;;;9.50;99.90;;;;;;4956749;29;20330;-64
2023/04/15 16:51:17;;;;;;;1.67;1.57;;;9.50;99.90;;;;;;4956777;29;20259;-65
2023/04/15 16:53:42;;;;;;;0.90;0.90;;;9.40;99.90;;;;;;4939040;29;20220;-64